Kezdőlap
METAR-TAF:

METAR-TAF

Repülőterek :

Brno, Csehország

földrajzi szélesség: 49-09N, földrajzi hosszúság: 016-42E, magasság: 241 m

Jelenlegi meteorológiai megfigyelések

A jelentés 22 perccel ezelõtt készült, 13:30 UTC
Különbözõ irányokból fújó szél 6 kt
Hőmérséklet 28°C
Páratartalom 37%
Légköri nyomás 1012 hPa
Látótávolság 10 km, vagy több
felhőtlen 1500 m magasságban, és nincs gomolyfelhõ

METAR: LKTB 141330Z VRB06KT CAVOK 28/12 Q1012 NOSIG

Idő: 15:52 (13:52 UTC)

Előrejelzés

A jelentés 2 órával és 52 perccel ezelõtt készült, 11:00 UTC
Az előrejelzés 14-én 12 óra UTC és 15-én 18 óra UTC között érvényes
Északnyugati szél 9 kt
Látótávolság 10 km, vagy több
felhőtlen 1500 m magasságban, és nincs gomolyfelhõ
Valószínűség 30% :
14-én 12 óra UTC és 14-én 16 óra UTC között ideiglenes
Szórványos felhőzet 4500 lábon, Tornyos gomolyfelhő.

TAF: LKTB 141100Z 1412/1518 32009KT CAVOK PROB30 TEMPO 1412/1416 SCT045TCU

Meteorológiai megfigyelések és előrejelzések több, mint 4000 repülőtéren (METAR és TAF jelentéseket).

A térképen piros és sárga pontok jelzik az elérhető meteorológiai állomásokat.

Mozgassa az egeret a pont fölött, hogy megjelenjen az állomás neve.

Azután kattintson az időjárási megfigyelések és előrejelzések megtekintéséhez.

A térkép megváltoztatása: kattintson a fekete keresztel jelölt zöld gombra ráközelítéshez, a vonallal jelölt zöld gombra távolításhoz, vagy a zöld nyilakra a szomszédos térképek eléréséhez.


METAR-TAF: